Time;durP1;ratioP1;P1;durP2;ratioP2;P2;SDS_P1;SDS_P2;PMS_P1;PMS_P2;Temp;Humidity;BMP_temperature;BMP_pressure;BME280_temperature;BME280_humidity;BME280_pressure;Samples;Min_cycle;Max_cycle;Signal;HPM_P1;HPM_P2
2022/06/10 00:00:42;;;;;;;11.68;3.63;;;9.20;99.90;;;;;;5104439;28;20051;-85
2022/06/10 00:03:12;;;;;;;12.98;3.58;;;9.20;99.90;;;;;;5104701;28;20044;-85
2022/06/10 00:05:39;;;;;;;15.35;3.75;;;9.20;99.90;;;;;;5102240;28;20058;-84
2022/06/10 00:08:07;;;;;;;13.13;4.15;;;9.20;99.90;;;;;;5104381;28;20150;-85
2022/06/10 00:10:33;;;;;;;13.07;3.35;;;9.20;99.90;;;;;;5104452;28;20426;-85
2022/06/10 00:12:59;;;;;;;11.23;3.97;;;9.20;99.90;;;;;;5104765;28;20044;-85
2022/06/10 00:15:25;;;;;;;11.15;3.63;;;9.20;99.90;;;;;;5102677;28;20080;-85
2022/06/10 00:17:51;;;;;;;14.68;3.95;;;10.00;99.90;;;;;;5104182;28;20070;-85
2022/06/10 00:20:20;;;;;;;11.30;4.00;;;9.30;99.90;;;;;;5104513;28;20050;-85
2022/06/10 00:22:46;;;;;;;14.50;4.25;;;9.30;99.90;;;;;;5106327;28;20048;-85
2022/06/10 00:25:12;;;;;;;14.35;4.10;;;9.90;99.90;;;;;;5108944;28;20055;-86
2022/06/10 00:27:38;;;;;;;12.05;4.30;;;9.30;99.90;;;;;;5107758;28;20408;-86
2022/06/10 00:30:07;;;;;;;12.25;4.25;;;9.30;99.90;;;;;;5105480;28;20040;-85
2022/06/10 00:32:33;;;;;;;14.60;3.58;;;9.30;99.90;;;;;;5104180;28;20036;-85
2022/06/10 00:34:59;;;;;;;10.48;3.35;;;9.40;99.90;;;;;;5104407;28;20365;-85
2022/06/10 00:37:25;;;;;;;20.35;4.43;;;9.40;99.90;;;;;;5105179;28;20102;-86
2022/06/10 00:39:50;;;;;;;14.52;4.63;;;9.30;99.90;;;;;;5105427;28;20407;-85
2022/06/10 00:42:16;;;;;;;10.93;3.20;;;9.30;99.90;;;;;;5102411;28;20043;-85
2022/06/10 00:44:46;;;;;;;20.20;4.63;;;9.30;99.90;;;;;;5101718;28;20040;-86
2022/06/10 00:47:14;;;;;;;9.88;3.65;;;9.20;99.90;;;;;;5103392;28;20093;-85
2022/06/10 00:49:43;;;;;;;14.80;4.40;;;9.20;99.90;;;;;;5103288;28;20040;-85
2022/06/10 00:52:22;;;;;;;12.07;3.95;;;9.20;99.90;;;;;;5103149;28;20096;-85
2022/06/10 00:54:49;;;;;;;15.75;3.78;;;9.20;99.90;;;;;;5102003;28;20040;-85
2022/06/10 00:57:27;;;;;;;19.83;3.80;;;9.20;99.90;;;;;;5101606;28;20055;-85
2022/06/10 01:00:06;;;;;;;12.00;4.63;;;9.20;99.90;;;;;;5102912;28;20115;-85
2022/06/10 01:02:34;;;;;;;15.27;4.53;;;9.30;99.90;;;;;;5102968;28;20419;-85
2022/06/10 01:05:04;;;;;;;13.10;4.03;;;9.20;99.90;;;;;;5102290;28;20044;-85
2022/06/10 01:07:39;;;;;;;14.02;4.70;;;9.20;99.90;;;;;;5102940;28;20043;-85
2022/06/10 01:10:09;;;;;;;16.40;4.35;;;9.10;99.90;;;;;;5103367;28;20040;-85
2022/06/10 01:12:47;;;;;;;14.38;6.28;;;9.20;99.90;;;;;;5103042;28;20036;-85
2022/06/10 01:15:31;;;;;;;12.45;4.45;;;9.20;99.90;;;;;;5102119;28;20056;-85
2022/06/10 01:18:15;;;;;;;14.85;4.72;;;9.20;99.90;;;;;;5102089;28;20046;-85
2022/06/10 01:20:51;;;;;;;16.33;4.40;;;9.20;99.90;;;;;;5102365;28;20048;-85
2022/06/10 01:23:46;;;;;;;10.85;3.08;;;9.20;99.90;;;;;;5102379;28;20059;-85
2022/06/10 01:26:17;;;;;;;15.85;5.88;;;9.20;99.90;;;;;;5100332;28;20044;-85
2022/06/10 01:29:02;;;;;;;13.15;4.82;;;9.20;99.90;;;;;;5100099;28;20048;-85
2022/06/10 01:31:38;;;;;;;18.50;4.25;;;9.20;99.90;;;;;;5101200;28;20052;-85
2022/06/10 01:34:13;;;;;;;19.63;4.75;;;9.10;99.90;;;;;;5101086;28;20111;-85
2022/06/10 01:36:46;;;;;;;18.60;4.68;;;9.10;99.90;;;;;;5102306;28;20388;-85
2022/06/10 01:39:21;;;;;;;17.85;4.93;;;9.10;99.90;;;;;;5100912;28;20054;-85
2022/06/10 01:42:07;;;;;;;12.82;3.90;;;9.10;99.90;;;;;;5102172;28;20056;-85
2022/06/10 01:44:36;;;;;;;17.70;4.07;;;9.00;99.90;;;;;;5092186;28;20048;-85
2022/06/10 01:47:11;;;;;;;10.90;4.90;;;9.10;99.90;;;;;;5099875;28;20075;-86
2022/06/10 01:49:47;;;;;;;18.98;5.93;;;9.10;99.90;;;;;;5101558;28;20044;-85
2022/06/10 01:52:20;;;;;;;12.05;5.32;;;9.00;99.90;;;;;;5091030;28;20110;-85
2022/06/10 01:55:04;;;;;;;21.63;7.35;;;9.00;99.90;;;;;;5081040;28;20052;-85
2022/06/10 01:57:43;;;;;;;13.65;4.90;;;9.00;99.90;;;;;;5109825;22;20118;-78
2022/06/10 02:00:19;;;;;;;21.70;6.13;;;9.00;99.90;;;;;;5052754;28;20048;-78
2022/06/10 02:03:11;;;;;;;17.95;4.90;;;8.90;99.90;;;;;;5052545;28;20051;-78
2022/06/10 02:05:41;;;;;;;11.70;5.05;;;8.90;99.90;;;;;;5051993;28;20037;-78
2022/06/10 02:08:18;;;;;;;13.30;4.70;;;8.90;99.90;;;;;;5033626;28;20053;-78
2022/06/10 02:10:53;;;;;;;12.02;5.30;;;8.90;99.90;;;;;;5047703;28;20053;-78
2022/06/10 02:13:24;;;;;;;16.33;6.10;;;8.80;99.90;;;;;;5053662;28;20041;-78
2022/06/10 02:15:52;;;;;;;14.75;5.30;;;8.80;99.90;;;;;;5043702;28;20147;-78
2022/06/10 02:18:24;;;;;;;16.88;5.40;;;8.70;99.90;;;;;;5053088;28;20124;-78
2022/06/10 02:20:54;;;;;;;19.13;5.78;;;8.70;99.90;;;;;;5053046;28;20062;-78
2022/06/10 02:23:29;;;;;;;22.17;6.63;;;8.70;99.90;;;;;;5052790;28;20405;-78
2022/06/10 02:25:58;;;;;;;19.10;6.75;;;8.70;99.90;;;;;;5052973;28;20048;-77
2022/06/10 02:28:32;;;;;;;14.27;5.45;;;8.70;99.90;;;;;;5051742;28;20409;-78
2022/06/10 02:31:05;;;;;;;15.32;5.82;;;8.60;99.90;;;;;;5052582;28;20510;-78
2022/06/10 02:33:31;;;;;;;18.48;5.95;;;8.60;99.90;;;;;;5034910;28;20493;-78
2022/06/10 02:36:15;;;;;;;12.57;5.97;;;8.70;99.90;;;;;;5053117;28;20076;-78
2022/06/10 02:39:02;;;;;;;10.82;5.10;;;8.60;99.90;;;;;;5053257;28;20045;-78
2022/06/10 02:42:03;;;;;;;16.48;6.93;;;8.60;99.90;;;;;;5052923;28;20040;-77
2022/06/10 02:44:50;;;;;;;13.18;6.13;;;8.50;99.90;;;;;;5052753;28;20128;-78
2022/06/10 02:48:01;;;;;;;18.30;6.03;;;8.50;99.90;;;;;;5053283;28;20133;-78
2022/06/10 02:50:27;;;;;;;14.88;6.60;;;8.50;99.90;;;;;;5037372;28;20102;-77
2022/06/10 02:52:53;;;;;;;20.35;7.53;;;8.50;99.90;;;;;;5057100;28;20124;-78
2022/06/10 02:55:22;;;;;;;16.08;6.70;;;8.40;99.90;;;;;;5057266;28;20138;-78
2022/06/10 03:04:03;;;;;;;23.35;6.43;;;8.40;99.90;;;;;;5054862;28;20447;-78
2022/06/10 03:06:50;;;;;;;21.45;7.45;;;8.40;99.90;;;;;;5041271;28;20049;-78
2022/06/10 03:09:42;;;;;;;26.20;7.28;;;8.40;99.90;;;;;;5036705;28;20076;-78
2022/06/10 03:12:19;;;;;;;16.38;6.57;;;8.30;99.90;;;;;;5036390;28;20521;-78
2022/06/10 03:15:33;;;;;;;17.52;6.80;;;8.30;99.90;;;;;;5036561;28;20050;-78
2022/06/10 03:18:40;;;;;;;16.55;7.25;;;8.30;99.90;;;;;;5023081;28;20049;-77
2022/06/10 03:21:37;;;;;;;19.67;6.43;;;8.30;99.90;;;;;;5015863;28;20136;-77
2022/06/10 03:24:24;;;;;;;;;;;8.40;99.90;;;;;;5055616;28;20041;-78
2022/06/10 03:27:16;;;;;;;18.13;6.22;;;8.30;99.90;;;;;;5056410;28;19974;-77
2022/06/10 03:29:52;;;;;;;16.08;7.40;;;8.40;99.90;;;;;;5055943;28;20053;-77
2022/06/10 03:32:31;;;;;;;16.55;7.13;;;8.40;99.90;;;;;;5055684;28;20080;-77
2022/06/10 03:35:15;;;;;;;15.75;6.88;;;8.50;99.90;;;;;;5055717;28;20037;-77
2022/06/10 03:37:41;;;;;;;18.20;7.60;;;8.50;99.90;;;;;;5055928;28;20452;-77
2022/06/10 03:40:20;;;;;;;19.80;6.78;;;8.60;99.90;;;;;;5055893;28;20121;-77
2022/06/10 03:42:50;;;;;;;22.52;7.82;;;8.70;99.90;;;;;;5039452;28;20099;-77
2022/06/10 03:45:18;;;;;;;21.35;6.75;;;8.70;99.90;;;;;;5045555;28;20041;-77
2022/06/10 03:47:44;;;;;;;16.02;6.53;;;8.80;99.90;;;;;;5055718;28;20055;-77
2022/06/10 03:50:13;;;;;;;13.23;5.97;;;8.80;99.90;;;;;;5055366;28;20040;-77
2022/06/10 03:52:40;;;;;;;14.88;6.55;;;8.90;99.90;;;;;;5054990;28;20147;-77
2022/06/10 03:55:07;;;;;;;19.92;6.47;;;8.90;99.90;;;;;;5055015;28;20069;-77
2022/06/10 03:57:34;;;;;;;21.38;6.30;;;9.00;99.90;;;;;;5054850;28;20433;-77
2022/06/10 04:00:00;;;;;;;20.70;6.13;;;9.00;99.90;;;;;;5054019;28;20052;-78
2022/06/10 04:02:25;;;;;;;16.50;5.97;;;9.10;99.90;;;;;;5054476;28;20102;-77
2022/06/10 04:04:51;;;;;;;23.52;6.70;;;9.10;99.90;;;;;;5054433;28;20044;-77
2022/06/10 04:07:18;;;;;;;16.08;5.90;;;9.20;99.90;;;;;;5055521;28;20459;-77
2022/06/10 04:09:48;;;;;;;13.15;5.25;;;9.30;99.90;;;;;;5055130;28;20401;-77
2022/06/10 04:12:15;;;;;;;13.18;5.25;;;9.30;99.90;;;;;;5055044;28;20052;-77
2022/06/10 04:14:44;;;;;;;12.07;5.32;;;9.40;99.90;;;;;;5040723;28;20401;-77
2022/06/10 04:17:10;;;;;;;14.80;5.03;;;9.40;99.90;;;;;;5043040;28;20037;-77
2022/06/10 04:19:36;;;;;;;17.35;5.50;;;9.50;99.90;;;;;;5042575;28;20033;-76
2022/06/10 04:22:04;;;;;;;16.23;5.30;;;9.60;99.90;;;;;;5043812;28;20037;-77
2022/06/10 04:24:30;;;;;;;19.20;5.30;;;9.70;99.90;;;;;;5045846;28;20072;-77
2022/06/10 04:26:56;;;;;;;18.85;5.82;;;10.00;99.90;;;;;;5055073;28;20494;-78
2022/06/10 04:29:21;;;;;;;16.30;4.32;;;10.20;99.90;;;;;;5052058;28;20044;-77
2022/06/10 04:31:47;;;;;;;13.85;5.35;;;10.30;99.90;;;;;;5054784;28;20132;-77
2022/06/10 04:34:14;;;;;;;14.57;4.85;;;10.60;99.90;;;;;;5040721;28;20052;-77
2022/06/10 04:36:40;;;;;;;20.17;4.88;;;10.70;99.90;;;;;;5054879;28;20449;-77
2022/06/10 04:39:06;;;;;;;10.90;4.30;;;10.80;99.90;;;;;;5054827;28;20069;-77
2022/06/10 04:41:33;;;;;;;16.73;4.78;;;10.90;99.90;;;;;;5053468;28;20064;-77
2022/06/10 04:43:59;;;;;;;10.13;3.38;;;11.10;99.90;;;;;;5054396;28;20564;-77
2022/06/10 04:46:40;;;;;;;16.90;3.50;;;11.30;99.90;;;;;;5053551;28;20116;-78
2022/06/10 04:49:06;;;;;;;9.23;2.95;;;11.60;99.90;;;;;;5034897;28;20049;-77
2022/06/10 04:51:33;;;;;;;8.70;2.92;;;12.50;99.90;;;;;;5034598;28;20045;-77
2022/06/10 04:53:58;;;;;;;9.30;3.42;;;13.50;99.90;;;;;;5044886;28;20037;-78
2022/06/10 04:56:24;;;;;;;12.27;3.30;;;14.40;99.90;;;;;;5034175;28;20045;-78
2022/06/10 04:58:49;;;;;;;9.00;2.40;;;15.30;99.90;;;;;;5032910;28;20049;-78
2022/06/10 05:01:15;;;;;;;8.20;2.60;;;16.40;99.90;;;;;;5031943;28;20119;-78
2022/06/10 05:03:42;;;;;;;10.48;2.70;;;16.60;99.90;;;;;;5031960;28;20041;-78
2022/06/10 05:06:08;;;;;;;18.33;2.83;;;17.10;99.90;;;;;;5032495;28;20045;-78
2022/06/10 05:08:34;;;;;;;10.20;2.83;;;17.90;99.90;;;;;;5041767;28;20397;-79
2022/06/10 05:10:59;;;;;;;11.45;2.63;;;18.10;99.90;;;;;;5049327;28;20492;-78
2022/06/10 05:13:25;;;;;;;7.18;2.83;;;18.70;94.90;;;;;;5051545;28;20037;-78
2022/06/10 05:15:51;;;;;;;10.35;2.78;;;19.10;95.20;;;;;;5050770;28;20044;-79
2022/06/10 05:18:20;;;;;;;10.10;2.55;;;19.80;76.70;;;;;;5052345;28;20410;-78
2022/06/10 05:20:46;;;;;;;11.27;2.75;;;20.30;72.50;;;;;;5053486;28;20119;-78
2022/06/10 05:23:15;;;;;;;15.10;2.58;;;20.30;46.80;;;;;;5052998;28;20095;-78
2022/06/10 05:25:41;;;;;;;14.05;2.92;;;19.70;52.50;;;;;;5053900;28;20078;-78
2022/06/10 05:28:09;;;;;;;12.02;2.50;;;18.90;63.70;;;;;;5054143;28;20128;-79
2022/06/10 05:30:35;;;;;;;14.13;2.67;;;18.40;73.10;;;;;;5053678;28;20040;-78
2022/06/10 05:33:03;;;;;;;11.77;2.30;;;18.10;80.50;;;;;;5052900;28;20448;-78
2022/06/10 05:35:29;;;;;;;13.70;3.05;;;17.90;87.00;;;;;;5053868;28;20056;-78
2022/06/10 05:37:55;;;;;;;10.10;2.55;;;17.80;84.10;;;;;;5054058;28;20043;-78
2022/06/10 05:40:23;;;;;;;14.13;3.30;;;18.30;75.80;;;;;;5053753;28;20116;-79
2022/06/10 05:42:50;;;;;;;12.90;3.28;;;18.00;75.90;;;;;;5053525;28;20045;-78
2022/06/10 05:45:17;;;;;;;7.07;2.30;;;17.80;83.70;;;;;;5053873;28;20041;-78
2022/06/10 05:47:44;;;;;;;11.30;2.97;;;17.30;87.30;;;;;;5054827;28;20076;-78
2022/06/10 05:50:29;;;;;;;11.00;3.53;;;17.00;94.20;;;;;;5052998;28;20041;-79
2022/06/10 05:52:56;;;;;;;14.88;3.47;;;16.80;95.30;;;;;;5052613;28;20053;-79
2022/06/10 05:55:21;;;;;;;12.80;3.42;;;16.70;99.90;;;;;;5051325;28;20041;-78
2022/06/10 05:57:50;;;;;;;13.90;3.38;;;16.50;99.90;;;;;;5050937;28;20666;-79
2022/06/10 06:00:21;;;;;;;12.10;3.50;;;16.80;99.90;;;;;;5052348;28;20521;-79
2022/06/10 06:02:47;;;;;;;11.30;3.60;;;16.30;99.90;;;;;;5052863;28;20044;-78
2022/06/10 06:05:13;;;;;;;19.88;3.60;;;16.40;99.90;;;;;;5052239;28;20120;-79
2022/06/10 06:07:42;;;;;;;12.18;3.10;;;16.30;99.90;;;;;;5052426;28;20043;-78
2022/06/10 06:10:10;;;;;;;12.93;3.25;;;16.30;99.90;;;;;;5052645;28;20056;-79
2022/06/10 06:12:35;;;;;;;14.75;3.60;;;16.20;99.90;;;;;;5052390;28;20053;-78
2022/06/10 06:15:01;;;;;;;13.43;3.35;;;17.30;99.90;;;;;;5052431;28;20413;-78
2022/06/10 06:17:27;;;;;;;12.82;3.33;;;16.20;99.90;;;;;;5052508;28;20079;-78
2022/06/10 06:19:52;;;;;;;12.93;4.28;;;16.30;99.90;;;;;;5052290;28;20099;-78
2022/06/10 06:22:18;;;;;;;11.05;3.40;;;16.60;99.90;;;;;;5055879;28;20087;-79
2022/06/10 06:24:44;;;;;;;14.55;3.63;;;16.80;99.90;;;;;;5056247;28;20045;-79
2022/06/10 06:27:14;;;;;;;9.23;2.45;;;16.80;99.90;;;;;;5056593;28;20416;-78
2022/06/10 06:29:41;;;;;;;13.38;2.90;;;17.10;99.90;;;;;;5056316;28;20098;-78
2022/06/10 06:32:07;;;;;;;11.70;3.45;;;17.10;99.90;;;;;;5056682;28;20041;-78
2022/06/10 06:34:33;;;;;;;14.13;3.40;;;17.20;99.90;;;;;;5056259;28;20080;-79
2022/06/10 06:36:58;;;;;;;10.77;3.33;;;17.20;99.90;;;;;;5056164;28;20442;-79
2022/06/10 06:39:25;;;;;;;14.07;3.60;;;17.10;99.90;;;;;;5056429;28;20049;-79
2022/06/10 06:41:52;;;;;;;6.07;2.13;;;17.10;99.90;;;;;;5056390;28;20439;-79
2022/06/10 06:44:19;;;;;;;10.13;2.97;;;17.10;99.90;;;;;;5056102;28;20417;-79
2022/06/10 06:46:45;;;;;;;8.80;3.30;;;16.90;99.90;;;;;;5056116;28;20414;-79
2022/06/10 06:49:18;;;;;;;8.70;2.60;;;17.10;99.90;;;;;;5053970;28;20045;-78
2022/06/10 06:51:43;;;;;;;14.40;3.47;;;16.90;99.90;;;;;;5053550;28;20121;-78
2022/06/10 06:54:09;;;;;;;11.82;3.08;;;16.90;99.90;;;;;;5043275;28;20678;-79
2022/06/10 06:56:36;;;;;;;16.73;3.90;;;17.00;99.90;;;;;;5041501;28;20053;-78
2022/06/10 06:59:02;;;;;;;9.05;2.70;;;16.90;99.90;;;;;;5033535;28;20414;-79
2022/06/10 07:01:28;;;;;;;16.85;3.28;;;16.90;99.90;;;;;;5033464;28;20069;-78
2022/06/10 07:03:53;;;;;;;13.00;3.28;;;17.00;99.90;;;;;;5033877;28;20053;-78
2022/06/10 07:06:19;;;;;;;12.50;3.67;;;17.10;99.90;;;;;;5032978;28;20042;-79
2022/06/10 07:08:45;;;;;;;11.80;3.28;;;17.30;99.90;;;;;;5033498;28;20037;-79
2022/06/10 07:11:10;;;;;;;14.88;3.33;;;17.30;99.90;;;;;;5033257;28;20046;-79
2022/06/10 07:13:38;;;;;;;11.88;3.50;;;17.40;99.90;;;;;;5033397;28;20038;-79
2022/06/10 07:16:05;;;;;;;13.70;3.50;;;17.50;99.90;;;;;;5033030;28;20490;-79
2022/06/10 07:18:32;;;;;;;11.85;4.07;;;17.60;99.90;;;;;;5033258;28;20482;-79
2022/06/10 07:20:58;;;;;;;13.20;3.85;;;17.80;99.90;;;;;;5033073;28;20477;-78
2022/06/10 07:23:24;;;;;;;15.63;5.15;;;18.00;99.90;;;;;;5032994;28;20080;-79
2022/06/10 07:25:50;;;;;;;14.40;3.30;;;18.00;99.90;;;;;;5032992;28;20482;-79
2022/06/10 07:28:15;;;;;;;17.55;4.45;;;18.00;99.90;;;;;;5033221;28;20049;-79
2022/06/10 07:30:42;;;;;;;13.02;5.13;;;18.00;99.90;;;;;;5033138;28;20504;-79
2022/06/10 07:33:08;;;;;;;15.45;4.78;;;18.00;99.90;;;;;;5032078;28;20045;-78
2022/06/10 07:35:35;;;;;;;12.98;4.93;;;18.10;99.90;;;;;;5032621;28;20060;-79
2022/06/10 07:38:01;;;;;;;15.80;4.82;;;18.10;99.90;;;;;;5032998;28;20045;-79
2022/06/10 07:43:21;;;;;;;19.17;6.60;;;18.10;99.90;;;;;;5032729;28;20119;-79
2022/06/10 07:45:47;;;;;;;14.93;5.55;;;17.60;99.90;;;;;;5032402;28;20429;-79
2022/06/10 07:48:14;;;;;;;18.25;5.82;;;17.40;99.90;;;;;;5032328;28;20042;-78
2022/06/10 07:50:41;;;;;;;15.05;5.38;;;17.20;99.90;;;;;;5032380;28;20055;-78
2022/06/10 07:53:08;;;;;;;16.80;5.95;;;17.10;99.90;;;;;;5032741;28;20045;-79
2022/06/10 07:55:34;;;;;;;16.85;5.55;;;17.10;99.90;;;;;;5032178;28;20045;-79
2022/06/10 07:58:00;;;;;;;16.05;5.47;;;17.00;99.90;;;;;;5032571;28;20387;-79
2022/06/10 08:00:26;;;;;;;13.30;4.85;;;17.00;99.90;;;;;;5032130;28;20099;-79
2022/06/10 08:02:52;;;;;;;7.38;4.15;;;17.30;99.90;;;;;;5032175;28;20088;-79
2022/06/10 08:05:19;;;;;;;13.07;5.68;;;17.70;99.90;;;;;;5032130;28;20091;-79
2022/06/10 08:07:45;;;;;;;15.45;4.95;;;18.10;99.90;;;;;;5032401;28;20540;-79
2022/06/10 08:10:22;;;;;;;8.63;4.18;;;18.20;99.90;;;;;;5032384;28;20046;-79
2022/06/10 08:12:48;;;;;;;15.20;4.75;;;18.30;99.90;;;;;;5032089;28;20445;-79
2022/06/10 08:15:15;;;;;;;13.95;4.38;;;18.50;99.90;;;;;;5031801;28;20124;-79
2022/06/10 08:17:41;;;;;;;10.43;3.97;;;18.70;99.90;;;;;;5032366;28;20084;-78
2022/06/10 08:20:08;;;;;;;15.27;5.30;;;18.70;99.90;;;;;;5031841;28;20045;-79
2022/06/10 08:22:35;;;;;;;18.38;4.50;;;18.60;99.90;;;;;;5032336;28;20489;-79
2022/06/10 08:25:05;;;;;;;15.65;3.80;;;18.60;99.90;;;;;;5031772;28;20042;-79
2022/06/10 08:27:31;;;;;;;15.15;5.15;;;18.50;99.90;;;;;;5031724;28;20506;-79
2022/06/10 08:29:57;;;;;;;14.80;4.65;;;18.60;99.90;;;;;;5031708;28;20041;-79
2022/06/10 08:32:24;;;;;;;13.25;3.95;;;18.40;99.90;;;;;;5031875;28;20052;-79
2022/06/10 08:34:49;;;;;;;14.63;4.32;;;18.40;99.90;;;;;;5031559;28;20055;-79
2022/06/10 08:37:16;;;;;;;15.48;4.45;;;18.50;99.90;;;;;;5031579;28;20075;-79
2022/06/10 08:39:42;;;;;;;12.65;4.22;;;18.60;99.90;;;;;;5031600;28;20049;-79
2022/06/10 08:42:31;;;;;;;12.73;3.90;;;18.60;99.90;;;;;;5031709;28;20059;-79
2022/06/10 08:45:02;;;;;;;11.32;4.25;;;18.80;99.90;;;;;;5030323;28;20048;-79
2022/06/10 08:47:36;;;;;;;14.50;4.28;;;18.70;99.90;;;;;;5032764;28;20172;-79
2022/06/10 08:50:38;;;;;;;12.48;4.65;;;18.80;99.90;;;;;;5051067;28;20052;-79
2022/06/10 08:53:30;;;;;;;17.00;5.53;;;18.50;99.90;;;;;;5050982;28;20041;-79
2022/06/10 08:56:26;;;;;;;19.42;4.75;;;18.40;99.90;;;;;;5051076;28;20049;-79
2022/06/10 08:59:10;;;;;;;9.95;4.20;;;18.20;99.90;;;;;;5048942;28;20532;-78
2022/06/10 09:02:12;;;;;;;13.82;5.05;;;18.10;99.90;;;;;;5050918;28;20912;-78
2022/06/10 09:04:56;;;;;;;15.30;6.00;;;18.10;99.90;;;;;;5050862;28;20565;-78
2022/06/10 09:07:27;;;;;;;15.18;5.35;;;18.20;99.90;;;;;;5051125;28;20045;-78
2022/06/10 09:09:54;;;;;;;11.13;4.32;;;18.50;99.90;;;;;;5051085;28;20099;-79
2022/06/10 09:12:58;;;;;;;14.73;5.03;;;19.30;99.90;;;;;;5050883;28;20077;-79
2022/06/10 09:15:27;;;;;;;13.40;4.60;;;19.60;99.90;;;;;;5049362;28;20155;-78
2022/06/10 09:17:59;;;;;;;10.52;3.70;;;20.10;99.90;;;;;;5050954;28;20041;-78
2022/06/10 09:20:35;;;;;;;15.88;4.28;;;20.60;99.90;;;;;;5050765;28;20124;-78
2022/06/10 09:23:08;;;;;;;8.48;3.50;;;20.90;99.90;;;;;;5050678;28;20106;-78
2022/06/10 09:25:39;;;;;;;13.70;4.25;;;20.90;95.90;;;;;;5048956;28;20044;-78
2022/06/10 09:28:05;;;;;;;13.55;3.28;;;20.90;92.80;;;;;;5050406;28;20056;-78
2022/06/10 09:30:45;;;;;;;12.52;4.30;;;20.60;91.90;;;;;;5050506;28;20088;-78
2022/06/10 09:33:40;;;;;;;12.02;3.55;;;20.50;90.10;;;;;;5050447;28;20041;-78
2022/06/10 09:36:12;;;;;;;15.55;4.03;;;20.20;92.50;;;;;;5050087;28;20433;-78
2022/06/10 09:39:02;;;;;;;14.02;4.13;;;20.20;92.40;;;;;;5050735;28;20041;-78
2022/06/10 09:41:42;;;;;;;9.43;3.78;;;19.90;93.70;;;;;;5050357;28;20041;-78
2022/06/10 09:44:24;;;;;;;10.32;3.10;;;19.70;96.80;;;;;;5050140;28;20060;-78
2022/06/10 09:47:31;;;;;;;16.15;3.92;;;19.40;99.80;;;;;;5050352;28;20052;-78
2022/06/10 09:49:57;;;;;;;;;;;19.20;99.30;;;;;;5050680;28;20037;-78
2022/06/10 09:52:34;;;;;;;12.60;4.27;;;19.00;99.90;;;;;;5050050;28;19920;-78
2022/06/10 09:55:27;;;;;;;11.38;4.20;;;18.80;99.90;;;;;;5050482;28;20431;-78
2022/06/10 09:58:18;;;;;;;12.15;3.78;;;18.70;99.90;;;;;;5049557;28;20092;-78
2022/06/10 10:01:01;;;;;;;18.05;4.20;;;18.90;99.90;;;;;;5050141;28;20048;-78
2022/06/10 10:04:00;;;;;;;14.25;4.20;;;19.40;99.90;;;;;;5049985;28;20140;-78
2022/06/10 10:06:33;;;;;;;15.48;4.05;;;20.00;99.90;;;;;;5051049;28;20091;-78
2022/06/10 10:09:44;;;;;;;14.13;3.58;;;20.30;97.20;;;;;;5052421;28;20528;-78
2022/06/10 10:12:28;;;;;;;10.18;3.60;;;21.00;89.20;;;;;;5050465;28;20413;-77
2022/06/10 10:15:34;;;;;;;13.38;3.67;;;21.80;77.60;;;;;;5051832;28;20069;-78
2022/06/10 10:18:27;;;;;;;14.07;4.03;;;22.20;73.80;;;;;;5030363;28;20053;-78
2022/06/10 10:21:00;;;;;;;13.05;3.80;;;22.50;65.80;;;;;;5013547;28;20059;-78
2022/06/10 10:23:35;;;;;;;12.52;4.00;;;22.50;68.60;;;;;;5045527;28;20056;-78
2022/06/10 10:26:25;;;;;;;10.55;3.20;;;22.70;63.70;;;;;;5052303;28;20049;-78
2022/06/10 10:29:00;;;;;;;12.93;3.63;;;22.60;56.90;;;;;;5052408;28;20044;-78
2022/06/10 10:31:30;;;;;;;10.65;3.65;;;22.10;64.70;;;;;;5052246;28;20045;-78
2022/06/10 10:33:57;;;;;;;12.20;3.45;;;22.10;68.90;;;;;;5052457;28;20041;-79
2022/06/10 10:36:30;;;;;;;12.63;3.35;;;22.30;65.10;;;;;;5052312;28;20045;-78
2022/06/10 10:38:57;;;;;;;10.35;3.53;;;22.50;65.00;;;;;;5052297;28;20103;-78
2022/06/10 10:41:25;;;;;;;9.68;3.08;;;22.90;63.10;;;;;;5052378;28;20037;-78
2022/06/10 10:43:55;;;;;;;11.25;3.35;;;23.10;55.60;;;;;;5052061;28;20502;-79
2022/06/10 10:46:29;;;;;;;11.27;3.55;;;22.90;56.30;;;;;;5052054;28;20045;-78
2022/06/10 10:48:59;;;;;;;10.45;3.10;;;22.60;61.00;;;;;;5052052;28;20502;-78
2022/06/10 10:51:33;;;;;;;12.05;3.53;;;22.30;64.60;;;;;;5052008;28;20098;-78
2022/06/10 10:54:08;;;;;;;12.88;3.60;;;22.30;62.80;;;;;;5052343;28;20045;-78
2022/06/10 10:56:36;;;;;;;;;;;22.30;63.10;;;;;;5052606;28;20049;-78
2022/06/10 10:59:01;;;;;;;10.25;2.92;;;22.40;63.20;;;;;;5051992;28;19954;-78
2022/06/10 11:01:49;;;;;;;14.02;3.65;;;22.30;64.50;;;;;;5051970;28;20489;-78
2022/06/10 11:04:19;;;;;;;13.75;2.92;;;22.40;65.00;;;;;;5052238;28;20063;-78
2022/06/10 11:06:45;;;;;;;13.25;3.35;;;22.40;66.50;;;;;;5050739;28;20045;-78
2022/06/10 11:09:25;;;;;;;11.15;3.30;;;22.30;65.10;;;;;;5055338;28;20090;-78
2022/06/10 11:11:52;;;;;;;13.45;2.65;;;22.30;67.50;;;;;;5055906;28;20044;-78
2022/06/10 11:14:26;;;;;;;11.23;3.42;;;22.20;67.00;;;;;;5055459;28;20081;-78
2022/06/10 11:17:00;;;;;;;10.90;3.08;;;22.10;69.70;;;;;;5056033;28;20063;-78
2022/06/10 11:19:40;;;;;;;9.93;2.70;;;22.00;69.10;;;;;;5055490;28;20100;-78
2022/06/10 11:22:17;;;;;;;9.50;3.03;;;21.80;71.80;;;;;;5055843;28;20150;-78
2022/06/10 11:24:48;;;;;;;9.32;3.10;;;21.50;71.20;;;;;;5054280;28;20081;-78
2022/06/10 11:27:31;;;;;;;9.05;3.28;;;21.20;74.90;;;;;;5055716;28;20048;-78
2022/06/10 11:30:05;;;;;;;10.30;2.75;;;21.00;81.20;;;;;;5055448;28;20056;-78
2022/06/10 11:32:43;;;;;;;9.18;2.95;;;21.00;83.70;;;;;;5055438;28;20040;-78
2022/06/10 11:35:32;;;;;;;10.13;2.90;;;21.30;83.60;;;;;;5055048;28;20044;-78
2022/06/10 11:38:17;;;;;;;12.73;2.63;;;21.70;78.30;;;;;;5055245;28;20140;-78
2022/06/10 11:40:45;;;;;;;13.32;3.13;;;22.20;74.10;;;;;;5055750;28;20041;-78
2022/06/10 11:43:22;;;;;;;7.40;2.50;;;22.50;67.90;;;;;;5055466;28;20045;-78
2022/06/10 11:46:11;;;;;;;12.43;2.80;;;22.50;65.50;;;;;;5055226;28;20389;-78
2022/06/10 11:48:48;;;;;;;9.32;2.90;;;22.40;64.80;;;;;;5044894;28;20406;-78
2022/06/10 11:51:23;;;;;;;8.68;2.90;;;22.50;67.80;;;;;;5054933;28;20045;-78
2022/06/10 11:54:00;;;;;;;11.77;3.58;;;22.80;64.90;;;;;;5054864;28;20480;-77
2022/06/10 11:59:57;;;;;;;10.02;2.53;;;23.20;59.70;;;;;;5053282;28;20052;-77
2022/06/10 12:02:35;;;;;;;12.00;3.00;;;23.40;57.30;;;;;;5054755;28;20040;-77
2022/06/10 12:05:25;;;;;;;10.57;3.17;;;23.50;53.10;;;;;;5054573;28;20082;-77
2022/06/10 12:07:59;;;;;;;12.23;3.08;;;23.60;55.50;;;;;;5054711;28;20111;-77
2022/06/10 12:10:31;;;;;;;9.45;2.53;;;24.00;51.00;;;;;;5054475;28;20386;-77
2022/06/10 12:12:58;;;;;;;8.75;2.80;;;24.20;49.70;;;;;;5054856;28;20132;-77
2022/06/10 12:15:37;;;;;;;11.00;2.88;;;24.20;45.60;;;;;;5053082;28;20099;-77
2022/06/10 12:18:05;;;;;;;9.13;2.58;;;24.00;43.20;;;;;;5054416;28;20491;-77
2022/06/10 12:20:42;;;;;;;13.00;3.53;;;23.80;46.30;;;;;;5054159;28;20120;-77
2022/06/10 12:23:25;;;;;;;17.35;3.33;;;23.70;45.40;;;;;;5054454;28;20094;-77
2022/06/10 12:26:00;;;;;;;13.25;3.28;;;23.60;47.30;;;;;;5054238;28;20037;-77
2022/06/10 12:28:46;;;;;;;8.50;2.55;;;23.80;49.80;;;;;;5054228;28;20036;-77
2022/06/10 12:31:33;;;;;;;10.27;2.83;;;24.00;49.50;;;;;;5053869;28;20092;-77
2022/06/10 12:34:09;;;;;;;11.27;3.30;;;24.20;45.90;;;;;;5054011;28;20549;-77
2022/06/10 12:36:42;;;;;;;10.52;2.53;;;24.10;44.00;;;;;;5054115;28;20044;-77
2022/06/10 12:39:28;;;;;;;11.27;2.38;;;24.20;44.20;;;;;;5054005;28;20049;-78
2022/06/10 12:42:06;;;;;;;11.65;2.83;;;24.40;39.90;;;;;;5054096;28;20059;-77
2022/06/10 12:44:35;;;;;;;14.35;3.50;;;24.50;38.90;;;;;;5053744;28;20045;-77
2022/06/10 12:47:04;;;;;;;8.35;2.63;;;24.60;35.20;;;;;;5054069;28;20049;-77
2022/06/10 12:49:40;;;;;;;12.23;3.45;;;24.70;32.80;;;;;;5053693;28;20045;-76
2022/06/10 12:52:22;;;;;;;7.80;2.47;;;24.90;35.10;;;;;;5053460;28;20041;-76
2022/06/10 12:55:01;;;;;;;10.70;3.47;;;25.20;24.40;;;;;;5053743;28;20048;-78
2022/06/10 12:57:44;;;;;;;12.15;2.50;;;24.80;25.90;;;;;;5052166;28;20049;-79
2022/06/10 13:00:22;;;;;;;13.10;2.80;;;24.50;32.50;;;;;;5053325;28;20076;-80
2022/06/10 13:02:50;;;;;;;9.00;2.33;;;24.20;36.20;;;;;;5046756;28;20045;-79
2022/06/10 13:05:19;;;;;;;6.38;2.08;;;24.00;40.90;;;;;;5047475;28;20080;-79
2022/06/10 13:07:45;;;;;;;7.97;2.30;;;24.20;40.90;;;;;;5049260;28;20490;-79
2022/06/10 13:10:29;;;;;;;9.07;2.28;;;24.30;39.00;;;;;;5044940;28;20120;-79
2022/06/10 13:13:22;;;;;;;13.93;4.47;;;24.40;40.20;;;;;;5046136;28;20054;-79
2022/06/10 13:15:48;;;;;;;10.75;2.75;;;24.30;34.00;;;;;;5042116;28;20705;-79
2022/06/10 13:18:17;;;;;;;16.90;4.65;;;24.00;38.00;;;;;;5046853;28;20037;-79
2022/06/10 13:20:48;;;;;;;10.57;3.70;;;23.90;37.00;;;;;;5047467;28;20045;-79
2022/06/10 13:23:15;;;;;;;12.60;2.95;;;23.90;38.10;;;;;;5050752;28;20052;-79
2022/06/10 13:25:44;;;;;;;10.20;2.97;;;24.10;39.80;;;;;;5046212;28;20102;-79